Time;durP1;ratioP1;P1;durP2;ratioP2;P2;SDS_P1;SDS_P2;PMS_P1;PMS_P2;Temp;Humidity;BMP_temperature;BMP_pressure;BME280_temperature;BME280_humidity;BME280_pressure;Samples;Min_cycle;Max_cycle;Signal;HPM_P1;HPM_P2
2024/01/14 00:01:26;;;;;;;13.18;1.80;;;;;;;3.58;100.00;101162.56;4891142;29;20052;-80
2024/01/14 00:03:53;;;;;;;15.02;2.22;;;;;;;3.55;100.00;101152.03;4914795;29;20043;-83
2024/01/14 00:06:21;;;;;;;12.07;1.98;;;;;;;3.54;100.00;101155.47;4905724;29;20054;-81
2024/01/14 00:08:49;;;;;;;10.18;2.22;;;;;;;3.52;100.00;101142.38;4906848;29;20048;-82
2024/01/14 00:11:16;;;;;;;10.18;2.10;;;;;;;3.50;100.00;101150.13;4915730;29;20062;-81
2024/01/14 00:13:43;;;;;;;7.03;1.52;;;;;;;3.51;100.00;101151.03;4904992;29;20389;-81
2024/01/14 00:16:11;;;;;;;9.38;1.50;;;;;;;3.48;100.00;101151.81;4917872;29;20040;-81
2024/01/14 00:18:38;;;;;;;9.00;1.20;;;;;;;3.48;100.00;101156.13;4914692;29;20052;-82
2024/01/14 00:21:06;;;;;;;9.93;1.40;;;;;;;3.45;100.00;101151.69;4923189;29;20063;-82
2024/01/14 00:23:33;;;;;;;10.80;2.33;;;;;;;3.46;100.00;101149.94;4924843;29;20062;-82
2024/01/14 00:26:01;;;;;;;7.60;1.58;;;;;;;3.46;100.00;101140.44;4909573;29;20467;-81
2024/01/14 00:28:29;;;;;;;8.63;1.67;;;;;;;3.46;100.00;101140.44;4922639;29;20051;-80
2024/01/14 00:30:56;;;;;;;7.95;1.35;;;;;;;3.48;100.00;101145.72;4923386;29;20048;-81
2024/01/14 00:33:24;;;;;;;11.82;2.10;;;;;;;3.47;100.00;101137.00;4905988;29;20067;-81
2024/01/14 00:35:52;;;;;;;10.93;1.58;;;;;;;3.48;100.00;101143.13;4911508;29;20047;-81
2024/01/14 00:38:19;;;;;;;8.98;2.17;;;;;;;3.47;100.00;101144.81;4941662;29;20052;-82
2024/01/14 00:40:46;;;;;;;12.52;2.08;;;;;;;3.46;100.00;101134.31;4895984;29;20059;-81
2024/01/14 00:43:14;;;;;;;11.07;2.50;;;;;;;3.44;100.00;101128.16;4917753;29;20035;-81
2024/01/14 00:45:42;;;;;;;10.45;1.70;;;;;;;3.43;100.00;101132.50;4911381;29;20040;-82
2024/01/14 00:48:09;;;;;;;14.95;2.17;;;;;;;3.42;100.00;101128.13;4909523;29;20062;-82
2024/01/14 00:50:37;;;;;;;20.63;3.88;;;;;;;3.41;100.00;101134.16;4915093;29;20055;-83
2024/01/14 00:53:05;;;;;;;25.90;2.88;;;;;;;3.38;100.00;101130.56;4914639;29;20739;-82
2024/01/14 00:55:32;;;;;;;10.25;2.13;;;;;;;3.35;100.00;101123.53;4911487;29;20035;-82
2024/01/14 00:58:00;;;;;;;12.05;1.92;;;;;;;3.33;100.00;101122.59;4919799;29;20055;-80
2024/01/14 01:00:28;;;;;;;12.00;2.03;;;;;;;3.31;100.00;101121.66;4890654;29;20052;-80
2024/01/14 01:02:56;;;;;;;16.02;2.33;;;;;;;3.29;100.00;101124.19;4931029;29;20078;-81
2024/01/14 01:05:23;;;;;;;18.38;2.78;;;;;;;3.29;100.00;101112.91;4911987;29;20536;-81
2024/01/14 01:07:51;;;;;;;10.90;2.53;;;;;;;3.27;100.00;101112.81;4916328;29;20063;-81
2024/01/14 01:10:18;;;;;;;14.98;2.50;;;;;;;3.25;100.00;101106.69;4899620;29;20044;-81
2024/01/14 01:12:45;;;;;;;17.15;3.05;;;;;;;3.24;100.00;101110.09;4912806;29;20058;-82
2024/01/14 01:15:13;;;;;;;18.00;2.88;;;;;;;3.25;100.00;101110.97;4901404;29;20509;-82
2024/01/14 01:17:40;;;;;;;13.77;2.63;;;;;;;3.22;100.00;101097.88;4913637;29;20052;-82
2024/01/14 01:20:08;;;;;;;18.77;2.60;;;;;;;3.21;100.00;101098.69;4920055;29;20056;-81
2024/01/14 01:22:36;;;;;;;12.55;2.83;;;;;;;3.20;100.00;101102.13;4898810;29;20055;-82
2024/01/14 01:25:04;;;;;;;18.15;2.85;;;;;;;3.17;100.00;101092.47;4897471;29;20975;-81
2024/01/14 01:27:32;;;;;;;23.60;3.20;;;;;;;3.16;100.00;101087.19;4935520;29;20047;-81
2024/01/14 01:29:59;;;;;;;13.43;2.47;;;;;;;3.16;100.00;101092.41;4899090;29;20059;-81
2024/01/14 01:32:27;;;;;;;15.25;2.67;;;;;;;3.16;100.00;101088.09;4918194;29;20044;-81
2024/01/14 01:34:55;;;;;;;20.42;3.60;;;;;;;3.16;100.00;101077.69;4915047;29;20753;-82
2024/01/14 01:37:23;;;;;;;16.88;3.63;;;;;;;3.17;100.00;101081.16;4910743;29;20486;-81
2024/01/14 01:39:50;;;;;;;19.05;3.33;;;;;;;3.15;100.00;101088.03;4916528;29;20047;-82
2024/01/14 01:42:18;;;;;;;20.10;3.65;;;;;;;3.12;100.00;101088.81;4911651;29;20055;-81
2024/01/14 01:44:46;;;;;;;15.50;3.13;;;;;;;3.10;100.00;101085.25;4915430;29;20051;-82
2024/01/14 01:47:16;;;;;;;20.58;3.22;;;;;;;3.08;100.00;101084.31;4899296;29;20055;-81
2024/01/14 01:49:43;;;;;;;25.40;3.90;;;;;;;3.05;100.00;101082.50;4933269;29;20048;-82
2024/01/14 01:52:11;;;;;;;23.48;3.97;;;;;;;3.02;100.00;101079.75;4925781;29;20040;-81
2024/01/14 01:54:40;;;;;;;23.35;3.55;;;;;;;3.00;100.00;101078.81;4915788;29;20051;-82
2024/01/14 01:57:09;;;;;;;21.58;3.03;;;;;;;2.99;100.00;101074.47;4882525;29;20432;-81
2024/01/14 01:59:39;;;;;;;18.85;3.33;;;;;;;3.00;100.00;101071.00;4927680;29;20054;-82
2024/01/14 02:02:07;;;;;;;20.33;2.67;;;;;;;3.00;100.00;101065.78;4897814;29;20043;-81
2024/01/14 02:04:35;;;;;;;22.55;3.78;;;;;;;3.00;100.00;101062.31;4915654;29;20044;-81
2024/01/14 02:07:03;;;;;;;26.60;3.25;;;;;;;3.00;100.00;101071.00;4907143;29;20052;-81
2024/01/14 02:09:32;;;;;;;14.82;3.00;;;;;;;3.00;100.00;101076.22;4889182;29;20048;-82
2024/01/14 02:12:00;;;;;;;21.77;3.38;;;;;;;3.01;100.00;101074.53;4915483;29;20059;-80
2024/01/14 02:14:28;;;;;;;36.83;5.10;;;;;;;3.02;100.00;101086.69;4899111;29;20059;-81
2024/01/14 02:16:55;;;;;;;13.82;3.10;;;;;;;3.02;100.00;101079.75;4911771;29;20063;-80
2024/01/14 02:19:22;;;;;;;22.52;3.30;;;;;;;3.04;100.00;101079.81;4914040;29;20472;-81
2024/01/14 02:21:59;;;;;;;13.07;2.60;;;;;;;3.04;100.00;101078.09;4897002;29;20055;-82
2024/01/14 02:24:29;;;;;;;14.30;3.17;;;;;;;3.03;100.00;101081.53;4928223;29;20044;-82
2024/01/14 02:26:57;;;;;;;12.07;3.13;;;;;;;3.01;100.00;101080.59;4913016;29;20055;-82
2024/01/14 02:29:27;;;;;;;16.63;2.63;;;;;;;2.99;100.00;101065.78;4915548;29;20054;-80
2024/01/14 02:31:56;;;;;;;16.52;2.85;;;;;;;2.97;100.00;101062.19;4881129;29;20054;-81
2024/01/14 02:34:23;;;;;;;16.25;2.80;;;;;;;2.91;100.00;101061.16;4909965;29;20067;-80
2024/01/14 02:36:51;;;;;;;15.80;3.38;;;;;;;2.90;100.00;101055.88;4930020;29;20047;-81
2024/01/14 02:39:19;;;;;;;18.33;3.25;;;;;;;2.87;100.00;101045.34;4927054;29;20039;-80
2024/01/14 02:41:46;;;;;;;15.60;3.03;;;;;;;2.84;100.00;101042.66;4914804;29;20062;-81
2024/01/14 02:44:15;;;;;;;27.13;4.57;;;;;;;2.79;100.00;101047.66;4915359;29;20055;-80
2024/01/14 02:46:42;;;;;;;24.38;3.72;;;;;;;2.76;100.00;101041.44;4926572;29;20040;-80
2024/01/14 02:49:10;;;;;;;15.70;3.92;;;;;;;2.73;100.00;101047.44;4916575;29;20086;-80
2024/01/14 02:51:37;;;;;;;17.15;3.53;;;;;;;2.68;100.00;101042.03;4916057;29;20051;-82
2024/01/14 02:54:05;;;;;;;18.90;2.97;;;;;;;2.66;100.00;101037.63;4926022;29;20606;-81
2024/01/14 02:56:33;;;;;;;18.85;2.80;;;;;;;2.62;100.00;101035.72;4917255;29;20046;-81
2024/01/14 02:59:00;;;;;;;20.10;3.15;;;;;;;2.57;100.00;101037.25;4896100;29;20052;-81
2024/01/14 03:01:28;;;;;;;21.60;2.90;;;;;;;2.50;100.00;101028.34;4913227;29;20371;-80
2024/01/14 03:03:55;;;;;;;21.98;4.15;;;;;;;2.46;100.00;101029.06;4909556;29;20051;-82
2024/01/14 03:06:23;;;;;;;28.55;3.50;;;;;;;2.43;100.00;101034.13;4897668;29;20052;-81
2024/01/14 03:08:51;;;;;;;22.30;3.80;;;;;;;2.42;100.00;101043.66;4897752;29;20050;-83
2024/01/14 03:11:19;;;;;;;19.02;3.08;;;;;;;2.44;100.00;101041.09;4913071;29;20063;-81
2024/01/14 03:13:46;;;;;;;28.33;5.13;;;;;;;2.45;100.00;101050.69;4915250;29;20047;-82
2024/01/14 03:16:14;;;;;;;21.35;4.03;;;;;;;2.47;100.00;101052.50;4897427;29;20056;-82
2024/01/14 03:18:44;;;;;;;17.25;3.88;;;;;;;2.53;100.00;101050.16;4910961;29;20512;-82
2024/01/14 03:21:18;;;;;;;19.08;3.08;;;;;;;2.57;100.00;101043.38;4893119;29;20070;-80
2024/01/14 03:23:46;;;;;;;29.48;3.90;;;;;;;2.59;100.00;101035.59;4907198;29;20058;-80
2024/01/14 03:26:14;;;;;;;20.67;3.75;;;;;;;2.61;100.00;101039.16;4905225;29;20059;-80
2024/01/14 03:28:42;;;;;;;22.23;3.10;;;;;;;2.60;100.00;101035.66;4900644;29;20051;-81
2024/01/14 03:31:13;;;;;;;16.73;2.75;;;;;;;2.60;100.00;101040.88;4898452;29;20044;-81
2024/01/14 03:33:44;;;;;;;17.30;2.53;;;;;;;2.61;100.00;101031.34;4914913;29;20067;-80
2024/01/14 03:36:15;;;;;;;17.20;3.05;;;;;;;2.60;100.00;101030.47;4884516;29;20056;-81
2024/01/14 03:38:43;;;;;;;13.70;2.75;;;;;;;2.61;100.00;101027.03;4916380;29;20055;-80
2024/01/14 03:41:11;;;;;;;16.58;2.65;;;;;;;2.63;100.00;101030.59;4924288;29;20064;-81
2024/01/14 03:43:39;;;;;;;21.73;3.28;;;;;;;2.62;100.00;101023.59;4931876;29;20057;-81
2024/01/14 03:46:07;;;;;;;15.38;3.03;;;;;;;2.64;100.00;101028.88;4882556;29;20498;-81
2024/01/14 03:48:35;;;;;;;20.48;3.25;;;;;;;2.64;100.00;101021.94;4928585;29;20048;-81
2024/01/14 03:51:03;;;;;;;11.70;2.40;;;;;;;2.66;100.00;101027.22;4901794;29;20062;-82
2024/01/14 03:53:31;;;;;;;20.40;2.92;;;;;;;2.67;100.00;101026.38;4915147;29;20051;-81
2024/01/14 03:55:58;;;;;;;13.60;3.40;;;;;;;2.67;100.00;101022.06;4915577;29;20078;-80
2024/01/14 03:58:28;;;;;;;17.48;3.20;;;;;;;2.67;100.00;101021.19;4904696;29;20067;-80
2024/01/14 04:00:56;;;;;;;26.45;3.78;;;;;;;2.67;100.00;101023.78;4910808;29;20062;-81
2024/01/14 04:03:24;;;;;;;23.58;3.13;;;;;;;2.67;100.00;101021.19;4898002;29;20059;-81
2024/01/14 04:05:51;;;;;;;30.27;3.78;;;;;;;2.67;100.00;101013.38;4897193;29;20040;-80
2024/01/14 04:08:19;;;;;;;19.52;3.38;;;;;;;2.68;100.00;101005.59;4911287;29;20040;-81
2024/01/14 04:10:46;;;;;;;15.48;3.03;;;;;;;2.69;100.00;101011.72;4914868;29;20048;-80
2024/01/14 04:13:14;;;;;;;23.70;4.00;;;;;;;2.69;100.00;101006.50;4891517;29;20051;-81
2024/01/14 04:15:41;;;;;;;18.95;3.28;;;;;;;2.69;100.00;101004.78;4915823;29;20056;-80
2024/01/14 04:18:09;;;;;;;28.40;3.67;;;;;;;2.69;100.00;101009.13;4916091;29;20390;-81
2024/01/14 04:20:36;;;;;;;21.30;4.18;;;;;;;2.68;100.00;101003.00;4885094;29;20082;-82
2024/01/14 04:23:04;;;;;;;26.73;4.13;;;;;;;2.68;100.00;101004.72;4915800;29;20394;-82
2024/01/14 04:25:32;;;;;;;26.45;3.65;;;;;;;2.69;100.00;100999.59;4914212;29;20056;-81
2024/01/14 04:28:01;;;;;;;23.05;3.65;;;;;;;2.69;100.00;100999.59;4909931;29;20532;-81
2024/01/14 04:30:31;;;;;;;18.88;3.63;;;;;;;2.70;100.00;101006.59;4903173;29;20051;-81
2024/01/14 04:32:59;;;;;;;23.77;3.83;;;;;;;2.70;100.00;101006.59;4894069;29;20072;-81
2024/01/14 04:35:26;;;;;;;22.75;4.47;;;;;;;2.70;100.00;101006.59;4897467;29;20058;-81
2024/01/14 04:37:54;;;;;;;13.55;3.53;;;;;;;2.71;100.00;101000.53;4899346;29;20051;-80
2024/01/14 04:40:25;;;;;;;19.17;3.25;;;;;;;2.71;100.00;100999.66;4914034;29;20473;-81
2024/01/14 04:42:54;;;;;;;30.55;3.50;;;;;;;2.70;100.00;100988.38;4885026;29;20048;-81
2024/01/14 04:45:21;;;;;;;13.23;3.20;;;;;;;2.68;100.00;100983.91;4875865;29;20060;-80
2024/01/14 04:47:48;;;;;;;12.68;3.03;;;;;;;2.64;100.00;100980.31;4876118;29;20410;-81
2024/01/14 04:50:16;;;;;;;16.50;2.75;;;;;;;2.61;100.00;100980.22;4892892;29;20041;-82
2024/01/14 04:52:44;;;;;;;13.88;2.55;;;;;;;2.60;100.00;100982.75;4879120;29;20498;-81
2024/01/14 04:55:13;;;;;;;11.77;2.72;;;;;;;2.59;100.00;100981.88;4877624;29;20065;-82
2024/01/14 04:57:40;;;;;;;20.55;3.35;;;;;;;2.56;100.00;100975.66;4895673;29;20060;-80
2024/01/14 05:00:08;;;;;;;20.13;2.88;;;;;;;2.54;100.00;100979.06;4874863;29;20060;-81
2024/01/14 05:02:36;;;;;;;16.33;4.03;;;;;;;2.50;100.00;100971.13;4868030;29;20418;-81
2024/01/14 05:05:06;;;;;;;;;;;;;;;2.47;100.00;100968.38;4880669;29;20053;-82
2024/01/14 05:07:34;;;;;;;15.95;2.60;;;;;;;2.43;100.00;100969.09;4858266;29;19942;-81
2024/01/14 05:10:02;;;;;;;15.43;2.50;;;;;;;2.42;100.00;100962.13;4893841;29;20060;-81
2024/01/14 05:12:29;;;;;;;10.88;2.30;;;;;;;2.39;100.00;100967.22;4891201;29;20049;-80
2024/01/14 05:14:58;;;;;;;12.20;3.58;;;;;;;2.36;100.00;100960.16;4885827;29;20049;-81
2024/01/14 05:17:27;;;;;;;16.52;2.17;;;;;;;2.33;100.00;100960.94;4895206;29;20056;-81
2024/01/14 05:19:55;;;;;;;14.05;2.00;;;;;;;2.32;100.00;100966.97;4881116;29;20064;-80
2024/01/14 05:22:22;;;;;;;14.93;2.33;;;;;;;2.33;100.00;100963.53;4891381;29;20049;-82
2024/01/14 05:24:52;;;;;;;14.13;3.45;;;;;;;2.36;100.00;100967.09;4873658;29;20048;-80
2024/01/14 05:27:20;;;;;;;10.82;2.45;;;;;;;2.37;100.00;100959.34;4884704;29;20045;-81
2024/01/14 05:29:48;;;;;;;10.57;2.15;;;;;;;2.39;100.00;100955.09;4888581;29;20052;-81
2024/01/14 05:32:16;;;;;;;14.77;2.28;;;;;;;2.38;100.00;100936.81;4861470;29;20514;-82
2024/01/14 05:34:45;;;;;;;11.35;3.03;;;;;;;2.39;100.00;100941.22;4882535;29;20068;-81
2024/01/14 05:37:13;;;;;;;14.25;2.47;;;;;;;2.36;100.00;100936.75;4861348;29;20056;-82
2024/01/14 05:39:40;;;;;;;11.95;3.25;;;;;;;2.34;100.00;100936.72;4890959;29;20059;-80
2024/01/14 05:42:08;;;;;;;12.07;2.38;;;;;;;2.31;100.00;100928.78;4897972;29;20044;-81
2024/01/14 05:44:39;;;;;;;16.60;2.15;;;;;;;2.30;100.00;100934.81;4902445;29;20507;-81
2024/01/14 05:47:07;;;;;;;11.00;2.35;;;;;;;2.30;100.00;100936.53;4905297;29;20051;-82
2024/01/14 05:49:34;;;;;;;16.02;3.03;;;;;;;2.28;100.00;100928.66;4893221;29;20071;-81
2024/01/14 05:52:01;;;;;;;17.40;3.28;;;;;;;2.29;100.00;100933.06;4912360;29;20544;-81
2024/01/14 05:54:29;;;;;;;9.40;2.05;;;;;;;2.27;100.00;100926.00;4891302;29;20064;-81
2024/01/14 05:56:57;;;;;;;11.43;3.15;;;;;;;2.23;100.00;100930.22;4914139;29;20067;-81
2024/01/14 05:59:25;;;;;;;12.30;2.45;;;;;;;2.19;100.00;100928.31;4912560;29;20044;-82
2024/01/14 06:01:55;;;;;;;13.40;2.53;;;;;;;2.14;100.00;100925.56;4907447;29;20417;-82
2024/01/14 06:04:23;;;;;;;7.47;2.25;;;;;;;2.08;100.00;100916.63;4902958;29;20418;-82
2024/01/14 06:06:51;;;;;;;18.77;2.70;;;;;;;2.03;100.00;100925.97;4895236;29;20060;-82
2024/01/14 06:09:19;;;;;;;16.05;2.55;;;;;;;1.95;100.00;100925.66;4895114;29;20056;-83
2024/01/14 06:11:46;;;;;;;14.80;2.40;;;;;;;1.87;100.00;100920.19;4902023;29;20059;-81
2024/01/14 06:14:14;;;;;;;11.82;2.35;;;;;;;1.80;100.00;100912.97;4911199;29;20060;-84
2024/01/14 06:16:41;;;;;;;12.45;2.47;;;;;;;1.76;100.00;100911.06;4875908;29;20090;-82
2024/01/14 06:19:09;;;;;;;16.17;2.95;;;;;;;1.71;100.00;100912.59;4912581;29;20048;-82
2024/01/14 06:21:41;;;;;;;13.32;2.92;;;;;;;1.66;100.00;100917.56;4896426;29;20047;-81
2024/01/14 06:24:12;;;;;;;18.60;3.22;;;;;;;1.58;100.00;100908.59;4906345;29;20052;-83
2024/01/14 06:26:40;;;;;;;14.73;2.45;;;;;;;1.53;100.00;100905.84;4902465;29;20064;-82
2024/01/14 06:29:07;;;;;;;20.13;3.38;;;;;;;1.49;100.00;100905.63;4911789;29;20056;-82
2024/01/14 06:31:35;;;;;;;21.10;2.88;;;;;;;1.43;100.00;100908.84;4911749;29;20092;-82
2024/01/14 06:34:03;;;;;;;10.63;2.95;;;;;;;1.40;100.00;100906.16;4907004;29;20067;-83
2024/01/14 06:36:30;;;;;;;15.90;2.78;;;;;;;1.38;100.00;100902.63;4911837;29;20063;-81
2024/01/14 06:38:58;;;;;;;16.85;3.42;;;;;;;1.36;100.00;100899.03;4918786;29;20080;-82
2024/01/14 06:41:25;;;;;;;16.58;2.50;;;;;;;1.35;100.00;100892.09;4882770;29;20055;-82
2024/01/14 06:43:53;;;;;;;18.27;2.85;;;;;;;1.33;100.00;100894.63;4906622;29;20059;-80
2024/01/14 06:46:20;;;;;;;17.15;3.67;;;;;;;1.31;100.00;100888.47;4911120;29;20141;-82
2024/01/14 06:48:48;;;;;;;15.07;3.17;;;;;;;1.30;100.00;100893.59;4906886;29;20040;-83
2024/01/14 06:51:16;;;;;;;26.98;3.58;;;;;;;1.28;100.00;100884.88;4897476;29;20040;-82
2024/01/14 06:53:44;;;;;;;19.90;2.70;;;;;;;1.28;100.00;100877.06;4912433;29;20413;-82
2024/01/14 06:56:11;;;;;;;14.80;3.17;;;;;;;1.29;100.00;100877.16;4902270;29;20060;-83
2024/01/14 06:58:39;;;;;;;16.52;3.17;;;;;;;1.30;100.00;100878.03;4914556;29;20048;-81
2024/01/14 07:01:07;;;;;;;17.63;2.83;;;;;;;1.32;100.00;100872.09;4910710;29;20567;-83
2024/01/14 07:03:40;;;;;;;14.13;2.60;;;;;;;1.35;100.00;100872.19;4906560;29;20055;-81
2024/01/14 07:06:08;;;;;;;15.48;2.83;;;;;;;1.41;100.00;100871.56;4911825;29;20063;-82
2024/01/14 07:08:36;;;;;;;15.52;2.58;;;;;;;1.48;100.00;100863.19;4881513;29;20060;-82
2024/01/14 07:11:05;;;;;;;11.32;2.55;;;;;;;1.55;100.00;100864.31;4910777;29;20056;-83
2024/01/14 07:13:33;;;;;;;15.27;2.75;;;;;;;1.61;100.00;100868.88;4870213;29;20071;-81
2024/01/14 07:16:01;;;;;;;12.35;3.22;;;;;;;1.66;100.00;100868.22;4905681;29;20048;-81
2024/01/14 07:18:28;;;;;;;13.55;2.90;;;;;;;1.70;100.00;100864.03;4887524;29;20044;-83
2024/01/14 07:20:56;;;;;;;11.27;2.50;;;;;;;1.74;100.00;100860.75;4896374;29;20103;-83
2024/01/14 07:23:23;;;;;;;11.93;1.92;;;;;;;1.80;100.00;100865.31;4897555;29;20944;-82
2024/01/14 07:26:15;;;;;;;9.98;1.80;;;;;;;1.85;100.00;100877.66;4912527;29;20059;-83
2024/01/14 07:28:43;;;;;;;8.48;1.92;;;;;;;1.90;100.00;100870.03;4896473;29;20040;-82
2024/01/14 07:31:12;;;;;;;12.35;2.05;;;;;;;1.92;100.00;100881.34;4903477;29;20063;-82
2024/01/14 07:33:41;;;;;;;12.73;2.13;;;;;;;1.95;100.00;100879.78;4905842;29;20051;-82
2024/01/14 07:36:09;;;;;;;14.57;1.85;;;;;;;1.97;100.00;100874.63;4891515;29;20056;-82
2024/01/14 07:38:36;;;;;;;15.48;2.03;;;;;;;1.99;100.00;100872.97;4893736;29;20048;-83
2024/01/14 07:41:05;;;;;;;11.77;2.13;;;;;;;2.01;100.00;100866.13;4911073;29;20475;-82
2024/01/14 07:43:33;;;;;;;9.60;1.98;;;;;;;2.03;100.00;100858.38;4907650;29;20049;-81
2024/01/14 07:46:00;;;;;;;11.88;3.50;;;;;;;2.04;100.00;100870.53;4901691;29;20064;-82
2024/01/14 07:48:28;;;;;;;9.32;2.25;;;;;;;2.02;100.00;100867.88;4909452;29;20048;-83
2024/01/14 07:50:55;;;;;;;12.65;2.40;;;;;;;2.00;100.00;100869.53;4905308;29;20125;-81
2024/01/14 07:53:23;;;;;;;16.20;2.30;;;;;;;1.97;100.00;100874.63;4910315;29;20151;-81
2024/01/14 07:55:50;;;;;;;16.80;2.72;;;;;;;1.95;100.00;100876.28;4894379;29;20060;-81
2024/01/14 07:58:18;;;;;;;14.38;2.88;;;;;;;1.89;100.00;100873.44;4905639;29;20044;-84
2024/01/14 08:00:46;;;;;;;19.08;2.85;;;;;;;1.83;100.00;100865.41;4903301;29;20494;-82
2024/01/14 08:03:27;;;;;;;18.25;3.38;;;;;;;1.80;100.00;100863.59;4895544;29;20473;-81
2024/01/14 08:05:55;;;;;;;15.70;3.50;;;;;;;1.77;100.00;100866.06;4892193;29;20060;-83
2024/01/14 08:08:23;;;;;;;11.20;2.45;;;;;;;1.70;100.00;100849.34;4893044;29;20059;-81
2024/01/14 08:10:51;;;;;;;15.65;3.03;;;;;;;1.64;100.00;100856.88;4895899;29;20094;-82
2024/01/14 08:13:20;;;;;;;13.98;3.83;;;;;;;1.60;100.00;100859.31;4907753;29;20055;-82
2024/01/14 08:15:47;;;;;;;26.83;4.13;;;;;;;1.52;100.00;100846.91;4882924;29;20056;-82
2024/01/14 08:18:29;;;;;;;20.45;2.80;;;;;;;1.50;100.00;100845.97;4904445;29;20044;-82
2024/01/14 08:20:58;;;;;;;14.75;2.70;;;;;;;1.48;100.00;100846.75;4889854;29;20075;-81
2024/01/14 08:23:32;;;;;;;18.38;2.80;;;;;;;1.46;100.00;100844.06;4898849;29;20056;-82
2024/01/14 08:26:01;;;;;;;16.38;3.22;;;;;;;1.47;100.00;100851.03;4895113;29;20060;-83
2024/01/14 08:28:34;;;;;;;23.58;3.33;;;;;;;1.50;100.00;100856.34;4909068;29;20060;-81
2024/01/14 08:31:01;;;;;;;17.17;3.10;;;;;;;1.53;100.00;100845.19;4894769;29;20422;-83
2024/01/14 08:33:29;;;;;;;18.23;2.90;;;;;;;1.56;100.00;100855.72;4897326;29;20530;-82
2024/01/14 08:35:57;;;;;;;17.45;3.17;;;;;;;1.61;100.00;100846.41;4910111;29;20502;-81
2024/01/14 08:38:25;;;;;;;22.33;3.08;;;;;;;1.63;100.00;100846.47;4912618;29;20048;-83
2024/01/14 08:40:52;;;;;;;20.85;2.90;;;;;;;1.61;100.00;100840.28;4913700;29;20052;-83
2024/01/14 08:43:20;;;;;;;20.20;3.45;;;;;;;1.57;100.00;100839.31;4910206;29;20520;-82
2024/01/14 08:45:47;;;;;;;17.40;3.08;;;;;;;1.55;100.00;100838.34;4902714;29;20062;-82
2024/01/14 08:48:15;;;;;;;24.15;4.18;;;;;;;1.52;100.00;100838.25;4884391;29;20055;-82
2024/01/14 08:50:46;;;;;;;18.60;3.97;;;;;;;1.49;100.00;100823.44;4903740;29;20048;-82
2024/01/14 08:53:13;;;;;;;15.93;3.00;;;;;;;1.48;100.00;100831.16;4899594;29;20048;-82
2024/01/14 08:55:41;;;;;;;11.98;2.97;;;;;;;1.50;100.00;100830.38;4888599;29;20051;-82
2024/01/14 08:58:09;;;;;;;23.48;3.17;;;;;;;1.52;100.00;100827.84;4907060;29;20058;-81
2024/01/14 09:00:37;;;;;;;9.43;2.58;;;;;;;1.55;100.00;100834.06;4933719;29;20044;-81
2024/01/14 09:03:04;;;;;;;17.25;3.33;;;;;;;1.61;100.00;100833.41;4914546;29;20047;-82
2024/01/14 09:05:32;;;;;;;19.25;3.30;;;;;;;1.66;100.00;100818.00;4922739;29;20052;-82
2024/01/14 09:08:00;;;;;;;20.63;3.47;;;;;;;1.72;100.00;100819.13;4911071;29;20063;-83
2024/01/14 09:10:27;;;;;;;22.73;3.10;;;;;;;1.75;100.00;100810.56;4927454;29;20062;-83
2024/01/14 09:12:55;;;;;;;20.73;3.08;;;;;;;1.77;100.00;100816.69;4879658;29;20063;-81
2024/01/14 09:15:22;;;;;;;19.15;3.65;;;;;;;1.79;100.00;100812.44;4909818;29;20048;-82
2024/01/14 09:17:51;;;;;;;20.40;2.88;;;;;;;1.81;100.00;100815.97;4897857;29;20047;-83
2024/01/14 09:20:20;;;;;;;;;;;;;;;1.84;100.00;100799.63;4909114;29;20044;-84
2024/01/14 09:22:50;;;;;;;19.30;2.90;;;;;;;1.89;100.00;100801.56;4904730;29;19938;-83
2024/01/14 09:25:17;;;;;;;21.92;3.33;;;;;;;1.99;100.00;100805.41;4916029;29;20289;-82
2024/01/14 09:27:44;;;;;;;15.32;3.50;;;;;;;2.07;100.00;100796.16;4912075;29;20055;-82
2024/01/14 09:30:12;;;;;;;16.25;2.60;;;;;;;2.14;100.00;100803.38;4913711;29;20274;-83
2024/01/14 09:32:40;;;;;;;13.13;2.92;;;;;;;2.22;100.00;100800.16;4893954;29;20056;-81
2024/01/14 09:35:08;;;;;;;17.95;2.90;;;;;;;2.28;100.00;100806.44;4892912;29;20544;-82
2024/01/14 09:37:38;;;;;;;13.48;3.42;;;;;;;2.32;100.00;100808.31;4931070;29;20055;-83
2024/01/14 09:40:06;;;;;;;13.55;2.80;;;;;;;2.33;100.00;100810.13;4924462;29;20048;-82
2024/01/14 09:42:35;;;;;;;14.35;2.70;;;;;;;2.35;100.00;100820.56;4897309;29;20056;-82
2024/01/14 09:45:05;;;;;;;17.60;2.53;;;;;;;2.39;100.00;100817.25;4907326;29;20059;-82
2024/01/14 09:47:33;;;;;;;15.23;3.77;;;;;;;2.39;100.00;100800.78;4916078;29;20047;-83
2024/01/14 09:50:01;;;;;;;18.63;4.15;;;;;;;2.37;100.00;100798.09;4881000;29;20053;-82
2024/01/14 09:52:33;;;;;;;7.88;2.42;;;;;;;2.36;100.00;100792.84;4907724;29;20060;-82
2024/01/14 09:55:00;;;;;;;13.18;2.38;;;;;;;2.35;100.00;100786.78;4882517;29;20060;-81
2024/01/14 09:57:30;;;;;;;17.20;2.38;;;;;;;2.39;100.00;100787.75;4909060;29;20040;-84
2024/01/14 10:00:04;;;;;;;12.90;2.05;;;;;;;2.42;100.00;100788.75;4916861;29;20048;-83
2024/01/14 10:02:33;;;;;;;18.67;3.03;;;;;;;2.46;100.00;100787.16;4906274;29;20048;-82
2024/01/14 10:05:01;;;;;;;8.77;2.65;;;;;;;2.53;100.00;100786.50;4899702;29;20052;-79
2024/01/14 10:07:28;;;;;;;15.10;3.67;;;;;;;2.59;100.00;100786.75;4896393;29;20057;-82
2024/01/14 10:09:57;;;;;;;12.75;2.30;;;;;;;2.64;100.00;100774.75;4892048;29;20075;-81
2024/01/14 10:12:25;;;;;;;16.38;2.67;;;;;;;2.66;100.00;100780.91;4893437;29;20060;-82
2024/01/14 10:14:58;;;;;;;11.13;2.33;;;;;;;2.71;100.00;100773.25;4913678;29;21184;-81
2024/01/14 10:17:27;;;;;;;19.10;2.83;;;;;;;2.76;100.00;100763.91;4905863;29;20051;-83
2024/01/14 10:19:55;;;;;;;15.13;2.67;;;;;;;2.83;100.00;100755.44;4897975;29;20048;-82
2024/01/14 10:22:22;;;;;;;12.93;2.75;;;;;;;2.91;100.00;100759.19;4899011;29;20056;-81
2024/01/14 10:24:52;;;;;;;19.00;4.03;;;;;;;2.98;100.00;100749.84;4898774;29;20055;-81
2024/01/14 10:27:24;;;;;;;17.40;2.78;;;;;;;3.08;100.00;100751.03;4911309;29;20060;-81
2024/01/14 10:30:12;;;;;;;16.08;2.80;;;;;;;3.13;100.00;100752.94;4892989;29;20055;-81
2024/01/14 10:32:42;;;;;;;15.75;2.45;;;;;;;3.16;100.00;100746.06;4896484;29;20857;-82
2024/01/14 10:35:29;;;;;;;16.75;3.95;;;;;;;3.16;100.00;100748.66;4886387;29;20064;-82
2024/01/14 10:38:00;;;;;;;13.57;2.53;;;;;;;3.16;100.00;100740.84;4897367;29;20425;-82
2024/01/14 10:40:27;;;;;;;14.05;2.33;;;;;;;3.15;100.00;100729.56;4905830;29;20052;-82
2024/01/14 10:42:55;;;;;;;10.25;2.25;;;;;;;3.17;100.00;100727.03;4908251;29;20052;-82
2024/01/14 10:45:22;;;;;;;14.35;2.78;;;;;;;3.24;100.00;100724.66;4906739;29;20502;-82
2024/01/14 10:47:56;;;;;;;11.43;2.90;;;;;;;3.27;100.00;100726.44;4888669;29;20060;-82
2024/01/14 10:50:27;;;;;;;7.93;1.92;;;;;;;3.32;100.00;100711.84;4903087;29;20048;-83
2024/01/14 10:53:16;;;;;;;21.40;2.97;;;;;;;3.38;100.00;100711.16;4893776;29;20494;-83
2024/01/14 10:55:49;;;;;;;11.15;1.90;;;;;;;3.43;100.00;100709.59;4898849;29;20064;-81
2024/01/14 10:58:27;;;;;;;14.98;2.25;;;;;;;3.47;100.00;100704.50;4904314;29;20486;-83
2024/01/14 11:01:01;;;;;;;6.28;1.70;;;;;;;3.50;100.00;100694.19;4896659;29;20044;-83
2024/01/14 11:03:29;;;;;;;18.85;1.95;;;;;;;3.52;100.00;100699.44;4892247;29;20056;-82
2024/01/14 11:05:58;;;;;;;12.88;2.30;;;;;;;3.53;100.00;100690.78;4917072;29;20197;-82
2024/01/14 11:08:27;;;;;;;10.43;1.80;;;;;;;3.50;100.00;100696.78;4889901;29;20053;-82
2024/01/14 11:10:55;;;;;;;9.38;1.70;;;;;;;3.44;100.00;100680.97;4887580;29;20059;-80
2024/01/14 11:13:31;;;;;;;8.00;1.70;;;;;;;3.42;100.00;100679.16;4892933;29;20052;-82
2024/01/14 11:16:18;;;;;;;5.00;1.08;;;;;;;3.38;100.00;100667.75;4906723;29;20076;-81
2024/01/14 11:18:52;;;;;;;4.38;1.85;;;;;;;3.40;100.00;100679.09;4915804;29;20047;-82
2024/01/14 11:21:43;;;;;;;7.55;1.55;;;;;;;3.42;100.00;100676.53;4911888;29;20059;-83
2024/01/14 11:24:31;;;;;;;15.10;3.42;;;;;;;3.48;100.00;100676.75;4906515;29;20048;-82
2024/01/14 11:26:58;;;;;;;9.70;1.58;;;;;;;3.54;100.00;100665.63;4900961;29;20525;-82